CST,Max TemperatureF,Mean TemperatureF,Min TemperatureF,Max Dew PointF,MeanDew PointF,Min DewpointF,Max Humidity, Mean Humidity, Min Humidity, Max Sea Level PressureIn, Mean Sea Level PressureIn, Min Sea Level PressureIn, Max VisibilityMiles, Mean VisibilityMiles, Min VisibilityMiles, Max Wind SpeedMPH, Mean Wind SpeedMPH, Max Gust SpeedMPH,PrecipitationIn, CloudCover, Events, WindDirDegrees
2012-12-1,32,26,19,32,27,19,100,100,100,29.84,29.74,29.61,3,2,0,14,8,,0.00,7,Fog,319
2012-12-2,33,28,24,34,31,25,100,100,100,29.83,29.61,29.30,10,4,0,17,10,,0.00,4,Fog-Rain,144
2012-12-3,39,24,8,37,22,5,100,87,68,29.95,29.58,29.27,10,10,7,36,17,46,0.00,3,Rain,278
2012-12-4,14,10,5,12,5,0,93,82,67,30.29,30.20,29.95,10,10,10,16,10,,0.00,2,,356
2012-12-5,35,25,15,32,21,12,93,87,80,30.21,29.81,29.56,10,10,10,25,17,31,0.00,3,,171
2012-12-6,35,22,8,32,18,7,100,91,80,29.98,29.85,29.60,10,10,10,36,20,41,0.00,3,,293
2012-12-7,8,4,1,7,3,-2,92,87,78,30.08,30.03,29.97,10,10,10,15,9,,0.00,5,Snow,25
2012-12-8,10,5,0,7,3,-4,92,87,78,30.19,29.98,29.90,10,5,1,22,14,26,0.73,8,Rain-Snow,55
2012-12-9,3,-3,-9,-4,-8,-15,85,81,72,30.38,30.27,30.05,10,9,2,20,12,24,0.00,4,,353
2012-12-10,15,3,-9,10,0,-17,92,84,71,30.04,29.74,29.63,10,10,5,15,10,,0.00,3,,219
2012-12-11,5,0,-4,1,-4,-9,92,80,71,29.83,29.78,29.69,10,9,1,25,8,28,0.00,5,Snow,48
2012-12-12,10,6,1,7,1,-4,92,85,78,29.98,29.78,29.64,10,7,0,26,16,32,0.03,8,Snow,55
2012-12-13,23,12,0,23,6,-2,100,88,78,30.06,30.01,29.94,10,8,2,12,8,,0.01,8,Snow,144
2012-12-14,24,20,17,25,20,18,100,100,100,29.94,29.80,29.70,5,1,0,17,10,,0.00,8,Fog,185
2012-12-15,23,14,6,23,15,5,100,97,86,29.78,29.71,29.68,10,3,0,22,8,25,0.00,8,Fog,308
2012-12-16,19,17,15,19,18,16,100,100,93,29.83,29.80,29.77,7,4,2,10,6,,0.00,8,,318
2012-12-17,21,18,14,21,18,14,100,99,93,29.78,29.64,29.57,10,7,0,14,8,,0.00,8,Fog-Snow,167
2012-12-18,24,22,19,25,21,19,100,100,100,29.62,29.58,29.56,10,4,1,12,9,,0.02,8,Snow,135
2012-12-19,24,12,0,25,15,-2,100,96,85,30.07,29.84,29.62,10,7,2,17,10,,0.47,7,Snow,320
2012-12-20,10,-3,-16,9,-8,-22,92,84,76,30.18,30.13,30.07,10,7,0,12,7,,0.00,4,Fog-Snow,306
2012-12-21,15,3,-9,14,-1,-13,100,86,77,30.20,30.08,29.97,10,8,0,16,6,,0.00,2,Fog-Snow,155
2012-12-22,10,2,-7,10,3,-11,100,87,77,30.22,30.13,29.98,10,9,3,17,10,23,0.00,5,Snow,356
2012-12-23,1,-3,-7,-2,-6,-11,92,83,77,30.22,30.18,30.15,10,9,1,17,9,,0.03,6,Rain-Snow,26
2012-12-24,1,-8,-16,-6,-12,-22,78,75,66,30.35,30.26,30.17,10,10,10,16,10,,0.00,4,,324
2012-12-25,-2,-12,-22,-8,-19,-29,78,73,69,30.44,30.39,30.33,10,9,3,14,9,,0.00,5,Snow,279
2012-12-26,8,-4,-16,7,-7,-22,92,82,70,30.32,30.22,30.16,10,10,5,12,5,,0.00,7,Snow,107
2012-12-27,10,8,6,9,7,5,92,90,85,30.17,30.11,30.06,10,7,2,14,10,,0.00,8,Snow,144
2012-12-28,10,2,-7,9,3,-13,92,87,77,30.06,29.99,29.95,10,9,3,16,8,,0.00,7,Snow,239
2012-12-29,8,-2,-13,3,-8,-18,92,81,70,30.04,29.98,29.93,10,10,10,13,8,,0.00,3,,245
2012-12-30,21,10,0,18,9,-2,100,87,72,30.12,29.94,29.86,10,10,2,23,8,29,0.19,7,Snow,324
2012-12-31,1,-8,-18,-2,-13,-26,85,79,70,30.21,30.17,30.12,10,9,0,10,5,,0.00,4,Fog,264